CheckWX is a tool to help pilots better visualize weather data.  It is not intended as a substitute for an official pre-flight weather briefing.

12:38:34 UTC

KFTW TAF
Fort Worth Meacham International Airport
Fort Worth, Texas, USA
KFTW 031741Z 0318/0418 34016G26KT 4SM -RA BR VCSH OVC008 TEMPO 0318/0319 2SM -DZ BR OVC006 FM032100 35017KT P6SM SCT009 OVC013 FM040200 35012KT P6SM OVC025 FM040900 34009KT P6SM VCSH OVC015 FM041200 35008KT P6SM VCSH OVC009 TEMPO 0415/0418 4SM -SHRA BR OVC006

Apr-3@
18:00 UTC

Apr-3 @ 18:00 UTC

Apr-3@
21:00 UTC

Apr-3 @ 21:00 UTC

TAF KFTW 031741Z 0318/0418 34016G26KT 4SM -RA BR VCSH OVC008

Expired

Wind
  • 340° at 16 KTS
  • {Gusting to 26 KTS
Conditions
Light Rain, Mist, Area Showers
Cloud Levels
  • Overcast at 800' AGL

Apr-3@
18:00 UTC

Apr-3 @ 18:00 UTC

Apr-3@
19:00 UTC

Apr-3 @ 19:00 UTC

TEMPO 0318/0319 2SM -DZ BR OVC006

Expired

Conditions
Light Drizzle, Mist
Cloud Levels
  • Overcast at 600' AGL

Apr-3@
21:00 UTC

Apr-3 @ 21:00 UTC

Apr-4@
02:00 UTC

Apr-4 @ 02:00 UTC

FM032100 35017KT P6SM SCT009 OVC013

Expired

Wind
  • 350° at 17 KTS
Cloud Levels
  • Scattered at 900' AGL
  • Overcast at 1,300' AGL

Apr-4@
02:00 UTC

Apr-4 @ 02:00 UTC

Apr-4@
09:00 UTC

Apr-4 @ 09:00 UTC

FM040200 35012KT P6SM OVC025

Expired

Wind
  • 350° at 12 KTS
Cloud Levels
  • Overcast at 2,500' AGL

Apr-4@
09:00 UTC

Apr-4 @ 09:00 UTC

Apr-4@
12:00 UTC

Apr-4 @ 12:00 UTC

FM040900 34009KT P6SM VCSH OVC015

Expired

Wind
  • 340° at 9 KTS
Conditions
Area Showers
Cloud Levels
  • Overcast at 1,500' AGL

Apr-4@
12:00 UTC

Apr-4 @ 12:00 UTC

Apr-4@
18:00 UTC

Apr-4 @ 18:00 UTC

FM041200 35008KT P6SM VCSH OVC009

From

From Standard forecast or significant change

Wind
  • 350° at 8 KTS
Conditions
Area Showers
Cloud Levels
  • Overcast at 900' AGL

Apr-4@
15:00 UTC

Apr-4 @ 15:00 UTC

Apr-4@
18:00 UTC

Apr-4 @ 18:00 UTC

TEMPO 0415/0418 4SM -SHRA BR OVC006

Temporary

Temporary Changes expected for less than half the time period

Conditions
Light Showers, Rain, Mist
Cloud Levels
  • Overcast at 600' AGL